sensor_id;sensor_type;location;lat;lon;timestamp;temperature;humidity
15749;DHT22;7976;52.526;13.326;2023-07-02T00:00:00;17.50;99.90
15749;DHT22;7976;52.526;13.326;2023-07-02T00:02:34;17.50;99.90
15749;DHT22;7976;52.526;13.326;2023-07-02T00:05:03;17.50;99.90
15749;DHT22;7976;52.526;13.326;2023-07-02T00:07:30;17.50;99.90
15749;DHT22;7976;52.526;13.326;2023-07-02T00:09:58;17.50;99.90
15749;DHT22;7976;52.526;13.326;2023-07-02T00:12:25;17.50;99.90
15749;DHT22;7976;52.526;13.326;2023-07-02T00:14:52;17.60;99.90
15749;DHT22;7976;52.526;13.326;2023-07-02T00:17:19;17.50;99.90
15749;DHT22;7976;52.526;13.326;2023-07-02T00:19:47;17.60;99.90
15749;DHT22;7976;52.526;13.326;2023-07-02T00:22:18;17.60;99.90
15749;DHT22;7976;52.526;13.326;2023-07-02T00:24:46;17.50;99.90
15749;DHT22;7976;52.526;13.326;2023-07-02T00:27:13;17.50;99.90
15749;DHT22;7976;52.526;13.326;2023-07-02T00:29:40;17.50;99.90
15749;DHT22;7976;52.526;13.326;2023-07-02T00:32:08;17.50;99.90
15749;DHT22;7976;52.526;13.326;2023-07-02T00:34:35;17.40;99.90
15749;DHT22;7976;52.526;13.326;2023-07-02T00:37:02;17.40;99.90
15749;DHT22;7976;52.526;13.326;2023-07-02T00:39:31;17.40;99.90
15749;DHT22;7976;52.526;13.326;2023-07-02T00:42:00;17.40;99.90
15749;DHT22;7976;52.526;13.326;2023-07-02T00:44:28;17.40;99.90
15749;DHT22;7976;52.526;13.326;2023-07-02T00:46:55;17.40;99.90
15749;DHT22;7976;52.526;13.326;2023-07-02T00:49:22;17.40;99.90
15749;DHT22;7976;52.526;13.326;2023-07-02T00:51:50;17.40;99.90
15749;DHT22;7976;52.526;13.326;2023-07-02T00:54:18;17.40;99.90
15749;DHT22;7976;52.526;13.326;2023-07-02T00:56:46;17.40;99.90
15749;DHT22;7976;52.526;13.326;2023-07-02T00:59:14;17.40;99.90
15749;DHT22;7976;52.526;13.326;2023-07-02T01:01:41;17.40;99.90
15749;DHT22;7976;52.526;13.326;2023-07-02T01:04:08;17.40;99.90
15749;DHT22;7976;52.526;13.326;2023-07-02T01:06:38;17.40;99.90
15749;DHT22;7976;52.526;13.326;2023-07-02T01:09:07;17.50;99.90
15749;DHT22;7976;52.526;13.326;2023-07-02T01:11:36;17.40;99.90
15749;DHT22;7976;52.526;13.326;2023-07-02T01:14:09;17.50;99.90
15749;DHT22;7976;52.526;13.326;2023-07-02T01:16:42;17.40;99.90
15749;DHT22;7976;52.526;13.326;2023-07-02T01:19:12;17.50;99.90
15749;DHT22;7976;52.526;13.326;2023-07-02T01:21:46;17.40;99.90
15749;DHT22;7976;52.526;13.326;2023-07-02T01:24:16;17.40;99.90
15749;DHT22;7976;52.526;13.326;2023-07-02T01:26:44;17.40;99.90
15749;DHT22;7976;52.526;13.326;2023-07-02T01:29:15;17.50;99.90
15749;DHT22;7976;52.526;13.326;2023-07-02T01:31:42;17.40;99.90
15749;DHT22;7976;52.526;13.326;2023-07-02T01:34:10;17.40;99.90
15749;DHT22;7976;52.526;13.326;2023-07-02T01:36:37;17.40;99.90
15749;DHT22;7976;52.526;13.326;2023-07-02T01:39:06;17.40;99.90
15749;DHT22;7976;52.526;13.326;2023-07-02T01:41:41;17.40;99.90
15749;DHT22;7976;52.526;13.326;2023-07-02T01:44:09;17.50;99.90
15749;DHT22;7976;52.526;13.326;2023-07-02T01:46:37;17.50;99.90
15749;DHT22;7976;52.526;13.326;2023-07-02T01:49:04;17.50;99.90
15749;DHT22;7976;52.526;13.326;2023-07-02T01:51:32;17.50;99.90
15749;DHT22;7976;52.526;13.326;2023-07-02T01:53:59;17.50;99.90
15749;DHT22;7976;52.526;13.326;2023-07-02T01:56:27;17.40;99.90
15749;DHT22;7976;52.526;13.326;2023-07-02T01:58:54;17.40;99.90
15749;DHT22;7976;52.526;13.326;2023-07-02T02:01:21;17.40;99.90
15749;DHT22;7976;52.526;13.326;2023-07-02T02:03:48;17.40;99.90
15749;DHT22;7976;52.526;13.326;2023-07-02T02:06:16;17.40;99.90
15749;DHT22;7976;52.526;13.326;2023-07-02T02:08:45;17.40;99.90
15749;DHT22;7976;52.526;13.326;2023-07-02T02:11:12;17.40;99.90
15749;DHT22;7976;52.526;13.326;2023-07-02T02:13:40;17.40;99.90
15749;DHT22;7976;52.526;13.326;2023-07-02T02:16:07;17.40;99.90
15749;DHT22;7976;52.526;13.326;2023-07-02T02:18:34;17.30;99.90
15749;DHT22;7976;52.526;13.326;2023-07-02T02:21:01;17.30;99.90
15749;DHT22;7976;52.526;13.326;2023-07-02T02:23:28;17.30;99.90
15749;DHT22;7976;52.526;13.326;2023-07-02T02:25:56;17.30;99.90
15749;DHT22;7976;52.526;13.326;2023-07-02T02:28:23;17.30;99.90
15749;DHT22;7976;52.526;13.326;2023-07-02T02:30:52;17.30;99.90
15749;DHT22;7976;52.526;13.326;2023-07-02T02:33:21;17.30;99.90
15749;DHT22;7976;52.526;13.326;2023-07-02T02:35:49;17.30;99.90
15749;DHT22;7976;52.526;13.326;2023-07-02T02:38:17;17.30;99.90
15749;DHT22;7976;52.526;13.326;2023-07-02T02:40:44;17.30;99.90
15749;DHT22;7976;52.526;13.326;2023-07-02T02:43:15;17.30;99.90
15749;DHT22;7976;52.526;13.326;2023-07-02T02:45:44;17.30;99.90
15749;DHT22;7976;52.526;13.326;2023-07-02T02:48:13;17.40;99.90
15749;DHT22;7976;52.526;13.326;2023-07-02T02:50:40;17.30;99.90
15749;DHT22;7976;52.526;13.326;2023-07-02T02:53:08;17.30;99.90
15749;DHT22;7976;52.526;13.326;2023-07-02T02:55:36;17.40;99.90
15749;DHT22;7976;52.526;13.326;2023-07-02T02:58:04;17.30;99.90
15749;DHT22;7976;52.526;13.326;2023-07-02T03:00:31;17.40;99.90
15749;DHT22;7976;52.526;13.326;2023-07-02T03:02:58;17.30;99.90
15749;DHT22;7976;52.526;13.326;2023-07-02T03:05:26;17.30;99.90
15749;DHT22;7976;52.526;13.326;2023-07-02T03:07:53;17.30;99.90
15749;DHT22;7976;52.526;13.326;2023-07-02T03:10:21;17.30;99.90
15749;DHT22;7976;52.526;13.326;2023-07-02T03:12:48;17.30;99.90
15749;DHT22;7976;52.526;13.326;2023-07-02T03:15:15;17.30;99.90
15749;DHT22;7976;52.526;13.326;2023-07-02T03:17:43;17.30;99.90
15749;DHT22;7976;52.526;13.326;2023-07-02T03:20:10;17.30;99.90
15749;DHT22;7976;52.526;13.326;2023-07-02T03:22:39;17.30;99.90
15749;DHT22;7976;52.526;13.326;2023-07-02T03:25:08;17.30;99.90
15749;DHT22;7976;52.526;13.326;2023-07-02T03:27:35;17.30;99.90
15749;DHT22;7976;52.526;13.326;2023-07-02T03:30:03;17.30;99.90
15749;DHT22;7976;52.526;13.326;2023-07-02T03:32:31;17.20;99.90
15749;DHT22;7976;52.526;13.326;2023-07-02T03:34:58;17.20;99.90
15749;DHT22;7976;52.526;13.326;2023-07-02T03:37:25;17.20;99.90
15749;DHT22;7976;52.526;13.326;2023-07-02T03:39:53;17.20;99.90
15749;DHT22;7976;52.526;13.326;2023-07-02T03:42:20;17.20;99.90
15749;DHT22;7976;52.526;13.326;2023-07-02T03:44:47;17.20;99.90
15749;DHT22;7976;52.526;13.326;2023-07-02T03:47:14;17.20;99.90
15749;DHT22;7976;52.526;13.326;2023-07-02T03:49:45;17.20;99.90
15749;DHT22;7976;52.526;13.326;2023-07-02T03:52:12;17.20;99.90
15749;DHT22;7976;52.526;13.326;2023-07-02T03:54:39;17.20;99.90
15749;DHT22;7976;52.526;13.326;2023-07-02T03:57:07;17.20;99.90
15749;DHT22;7976;52.526;13.326;2023-07-02T03:59:34;17.20;99.90
15749;DHT22;7976;52.526;13.326;2023-07-02T04:02:02;17.20;99.90
15749;DHT22;7976;52.526;13.326;2023-07-02T04:04:29;17.20;99.90
15749;DHT22;7976;52.526;13.326;2023-07-02T04:06:56;17.20;99.90
15749;DHT22;7976;52.526;13.326;2023-07-02T04:09:23;17.20;99.90
15749;DHT22;7976;52.526;13.326;2023-07-02T04:11:50;17.10;99.90
15749;DHT22;7976;52.526;13.326;2023-07-02T04:14:18;17.10;99.90
15749;DHT22;7976;52.526;13.326;2023-07-02T04:16:45;17.10;99.90
15749;DHT22;7976;52.526;13.326;2023-07-02T04:19:12;17.10;99.90
15749;DHT22;7976;52.526;13.326;2023-07-02T04:21:39;17.10;99.90
15749;DHT22;7976;52.526;13.326;2023-07-02T04:24:06;17.20;99.90
15749;DHT22;7976;52.526;13.326;2023-07-02T04:26:33;17.20;99.90
15749;DHT22;7976;52.526;13.326;2023-07-02T04:29:02;17.20;99.90
15749;DHT22;7976;52.526;13.326;2023-07-02T04:31:30;17.20;99.90
15749;DHT22;7976;52.526;13.326;2023-07-02T04:33:57;17.30;99.90
15749;DHT22;7976;52.526;13.326;2023-07-02T04:36:24;17.30;99.90
15749;DHT22;7976;52.526;13.326;2023-07-02T04:38:51;17.30;99.90
15749;DHT22;7976;52.526;13.326;2023-07-02T04:41:18;17.30;99.90
15749;DHT22;7976;52.526;13.326;2023-07-02T04:43:45;17.40;99.90
15749;DHT22;7976;52.526;13.326;2023-07-02T04:46:13;17.40;99.90
15749;DHT22;7976;52.526;13.326;2023-07-02T04:48:41;17.40;99.90
15749;DHT22;7976;52.526;13.326;2023-07-02T04:51:07;17.40;99.90
15749;DHT22;7976;52.526;13.326;2023-07-02T04:53:34;17.40;99.90
15749;DHT22;7976;52.526;13.326;2023-07-02T04:56:03;17.40;99.90
15749;DHT22;7976;52.526;13.326;2023-07-02T04:58:30;17.40;99.90
15749;DHT22;7976;52.526;13.326;2023-07-02T05:00:57;17.50;99.90
15749;DHT22;7976;52.526;13.326;2023-07-02T05:03:23;17.50;99.90
15749;DHT22;7976;52.526;13.326;2023-07-02T05:05:52;17.50;99.90
15749;DHT22;7976;52.526;13.326;2023-07-02T05:08:18;17.60;99.90
15749;DHT22;7976;52.526;13.326;2023-07-02T05:10:45;17.70;99.90
15749;DHT22;7976;52.526;13.326;2023-07-02T05:13:12;17.80;99.90
15749;DHT22;7976;52.526;13.326;2023-07-02T05:15:39;17.80;99.90
15749;DHT22;7976;52.526;13.326;2023-07-02T05:18:06;17.80;99.90
15749;DHT22;7976;52.526;13.326;2023-07-02T05:20:33;17.90;99.90
15749;DHT22;7976;52.526;13.326;2023-07-02T05:23:01;17.90;99.90
15749;DHT22;7976;52.526;13.326;2023-07-02T05:25:28;17.90;99.90
15749;DHT22;7976;52.526;13.326;2023-07-02T05:27:55;17.90;99.90
15749;DHT22;7976;52.526;13.326;2023-07-02T05:30:22;18.00;99.90
15749;DHT22;7976;52.526;13.326;2023-07-02T05:32:48;18.00;99.90
15749;DHT22;7976;52.526;13.326;2023-07-02T05:35:15;18.00;99.90
15749;DHT22;7976;52.526;13.326;2023-07-02T05:37:42;18.00;99.90
15749;DHT22;7976;52.526;13.326;2023-07-02T05:40:12;18.00;99.90
15749;DHT22;7976;52.526;13.326;2023-07-02T05:42:39;18.00;99.90
15749;DHT22;7976;52.526;13.326;2023-07-02T05:45:08;18.00;99.90
15749;DHT22;7976;52.526;13.326;2023-07-02T05:47:36;18.00;99.90
15749;DHT22;7976;52.526;13.326;2023-07-02T05:50:03;18.00;99.90
15749;DHT22;7976;52.526;13.326;2023-07-02T05:52:31;18.10;99.90
15749;DHT22;7976;52.526;13.326;2023-07-02T05:54:58;18.10;99.90
15749;DHT22;7976;52.526;13.326;2023-07-02T05:57:26;18.20;99.90
15749;DHT22;7976;52.526;13.326;2023-07-02T05:59:53;18.20;99.90
15749;DHT22;7976;52.526;13.326;2023-07-02T06:02:19;18.30;99.90
15749;DHT22;7976;52.526;13.326;2023-07-02T06:04:46;18.50;99.90
15749;DHT22;7976;52.526;13.326;2023-07-02T06:07:13;18.60;99.90
15749;DHT22;7976;52.526;13.326;2023-07-02T06:09:40;18.70;99.90
15749;DHT22;7976;52.526;13.326;2023-07-02T06:12:07;18.70;99.90
15749;DHT22;7976;52.526;13.326;2023-07-02T06:14:36;18.80;99.90
15749;DHT22;7976;52.526;13.326;2023-07-02T06:17:02;18.90;99.90
15749;DHT22;7976;52.526;13.326;2023-07-02T06:19:31;18.90;99.90
15749;DHT22;7976;52.526;13.326;2023-07-02T06:21:58;18.90;99.90
15749;DHT22;7976;52.526;13.326;2023-07-02T06:24:25;18.90;99.90
15749;DHT22;7976;52.526;13.326;2023-07-02T06:26:53;18.80;99.90
15749;DHT22;7976;52.526;13.326;2023-07-02T06:29:21;18.80;99.90
15749;DHT22;7976;52.526;13.326;2023-07-02T06:31:50;18.80;99.90
15749;DHT22;7976;52.526;13.326;2023-07-02T06:34:17;18.90;99.90
15749;DHT22;7976;52.526;13.326;2023-07-02T06:36:44;18.90;99.90
15749;DHT22;7976;52.526;13.326;2023-07-02T06:39:10;18.90;99.90
15749;DHT22;7976;52.526;13.326;2023-07-02T06:41:37;19.00;99.90
15749;DHT22;7976;52.526;13.326;2023-07-02T06:44:04;19.00;99.90
15749;DHT22;7976;52.526;13.326;2023-07-02T06:46:32;19.00;99.90
15749;DHT22;7976;52.526;13.326;2023-07-02T06:49:00;19.10;99.90
15749;DHT22;7976;52.526;13.326;2023-07-02T06:51:27;19.10;99.90
15749;DHT22;7976;52.526;13.326;2023-07-02T06:53:55;19.20;99.90
15749;DHT22;7976;52.526;13.326;2023-07-02T06:56:21;19.30;99.90
15749;DHT22;7976;52.526;13.326;2023-07-02T06:58:49;19.50;99.90
15749;DHT22;7976;52.526;13.326;2023-07-02T07:01:15;19.60;99.90
15749;DHT22;7976;52.526;13.326;2023-07-02T07:03:42;19.60;99.90
15749;DHT22;7976;52.526;13.326;2023-07-02T07:06:11;19.60;99.90
15749;DHT22;7976;52.526;13.326;2023-07-02T07:08:38;19.60;99.90
15749;DHT22;7976;52.526;13.326;2023-07-02T07:11:05;19.70;99.90
15749;DHT22;7976;52.526;13.326;2023-07-02T07:13:33;19.70;99.90
15749;DHT22;7976;52.526;13.326;2023-07-02T07:16:00;19.60;99.90
15749;DHT22;7976;52.526;13.326;2023-07-02T07:18:27;19.70;99.90
15749;DHT22;7976;52.526;13.326;2023-07-02T07:20:54;19.70;99.90
15749;DHT22;7976;52.526;13.326;2023-07-02T07:23:22;19.70;99.90
15749;DHT22;7976;52.526;13.326;2023-07-02T07:25:49;19.60;99.90
15749;DHT22;7976;52.526;13.326;2023-07-02T07:28:16;19.70;99.90
15749;DHT22;7976;52.526;13.326;2023-07-02T07:30:43;19.70;99.90
15749;DHT22;7976;52.526;13.326;2023-07-02T07:33:11;19.80;99.90
15749;DHT22;7976;52.526;13.326;2023-07-02T07:35:38;19.90;99.90
15749;DHT22;7976;52.526;13.326;2023-07-02T07:38:05;20.00;99.90
15749;DHT22;7976;52.526;13.326;2023-07-02T07:40:33;20.00;99.90
15749;DHT22;7976;52.526;13.326;2023-07-02T07:43:00;20.00;99.90
15749;DHT22;7976;52.526;13.326;2023-07-02T07:45:27;19.90;99.90
15749;DHT22;7976;52.526;13.326;2023-07-02T07:47:54;19.90;99.90
15749;DHT22;7976;52.526;13.326;2023-07-02T07:50:21;19.70;99.90
15749;DHT22;7976;52.526;13.326;2023-07-02T07:52:48;19.60;99.90
15749;DHT22;7976;52.526;13.326;2023-07-02T07:55:17;19.50;99.90
15749;DHT22;7976;52.526;13.326;2023-07-02T07:57:45;19.50;99.90
15749;DHT22;7976;52.526;13.326;2023-07-02T08:00:15;19.40;99.90
15749;DHT22;7976;52.526;13.326;2023-07-02T08:02:43;19.30;99.90
15749;DHT22;7976;52.526;13.326;2023-07-02T08:05:11;19.30;99.90
15749;DHT22;7976;52.526;13.326;2023-07-02T08:07:41;19.20;99.90
15749;DHT22;7976;52.526;13.326;2023-07-02T08:10:09;19.10;99.90
15749;DHT22;7976;52.526;13.326;2023-07-02T08:12:36;19.10;99.90
15749;DHT22;7976;52.526;13.326;2023-07-02T08:15:06;19.10;99.90
15749;DHT22;7976;52.526;13.326;2023-07-02T08:17:34;19.10;99.90
15749;DHT22;7976;52.526;13.326;2023-07-02T08:20:01;19.10;99.90
15749;DHT22;7976;52.526;13.326;2023-07-02T08:22:30;19.10;99.90
15749;DHT22;7976;52.526;13.326;2023-07-02T08:24:57;19.00;99.90
15749;DHT22;7976;52.526;13.326;2023-07-02T08:27:24;19.00;99.90
15749;DHT22;7976;52.526;13.326;2023-07-02T08:29:51;19.10;99.90
15749;DHT22;7976;52.526;13.326;2023-07-02T08:32:20;19.10;99.90
15749;DHT22;7976;52.526;13.326;2023-07-02T08:34:47;19.10;99.90
15749;DHT22;7976;52.526;13.326;2023-07-02T08:37:16;19.20;99.90
15749;DHT22;7976;52.526;13.326;2023-07-02T08:39:43;19.20;99.90
15749;DHT22;7976;52.526;13.326;2023-07-02T08:42:10;19.30;99.90
15749;DHT22;7976;52.526;13.326;2023-07-02T08:44:37;19.30;99.90
15749;DHT22;7976;52.526;13.326;2023-07-02T08:47:05;19.30;99.90
15749;DHT22;7976;52.526;13.326;2023-07-02T08:49:34;19.30;99.90
15749;DHT22;7976;52.526;13.326;2023-07-02T08:52:01;19.30;99.90
15749;DHT22;7976;52.526;13.326;2023-07-02T08:54:28;19.30;99.90
15749;DHT22;7976;52.526;13.326;2023-07-02T08:56:55;19.30;99.90
15749;DHT22;7976;52.526;13.326;2023-07-02T08:59:22;19.30;99.90
15749;DHT22;7976;52.526;13.326;2023-07-02T09:01:51;19.40;99.90
15749;DHT22;7976;52.526;13.326;2023-07-02T09:04:20;19.50;99.90
15749;DHT22;7976;52.526;13.326;2023-07-02T09:06:51;19.50;99.90
15749;DHT22;7976;52.526;13.326;2023-07-02T09:09:31;19.60;99.90
15749;DHT22;7976;52.526;13.326;2023-07-02T09:11:58;19.70;99.90
15749;DHT22;7976;52.526;13.326;2023-07-02T09:14:26;19.70;99.90
15749;DHT22;7976;52.526;13.326;2023-07-02T09:17:05;19.80;99.90
15749;DHT22;7976;52.526;13.326;2023-07-02T09:19:35;19.90;99.90
15749;DHT22;7976;52.526;13.326;2023-07-02T09:22:04;20.10;99.90
15749;DHT22;7976;52.526;13.326;2023-07-02T09:24:32;20.10;99.90
15749;DHT22;7976;52.526;13.326;2023-07-02T09:27:00;20.10;99.90
15749;DHT22;7976;52.526;13.326;2023-07-02T09:29:29;20.10;99.90
15749;DHT22;7976;52.526;13.326;2023-07-02T09:31:59;20.10;99.90
15749;DHT22;7976;52.526;13.326;2023-07-02T09:34:30;20.00;99.90
15749;DHT22;7976;52.526;13.326;2023-07-02T09:36:58;19.90;99.90
15749;DHT22;7976;52.526;13.326;2023-07-02T09:39:28;19.90;99.90
15749;DHT22;7976;52.526;13.326;2023-07-02T09:41:57;20.00;99.90
15749;DHT22;7976;52.526;13.326;2023-07-02T09:44:27;20.00;99.90
15749;DHT22;7976;52.526;13.326;2023-07-02T09:47:01;20.20;99.90
15749;DHT22;7976;52.526;13.326;2023-07-02T09:49:32;20.40;99.90
15749;DHT22;7976;52.526;13.326;2023-07-02T09:52:02;20.70;99.90
15749;DHT22;7976;52.526;13.326;2023-07-02T09:54:35;20.70;99.90
15749;DHT22;7976;52.526;13.326;2023-07-02T09:57:04;20.80;99.90
15749;DHT22;7976;52.526;13.326;2023-07-02T09:59:33;20.90;99.90
15749;DHT22;7976;52.526;13.326;2023-07-02T10:02:00;21.10;99.90
15749;DHT22;7976;52.526;13.326;2023-07-02T10:04:28;21.20;99.90
15749;DHT22;7976;52.526;13.326;2023-07-02T10:07:06;21.10;99.90
15749;DHT22;7976;52.526;13.326;2023-07-02T10:09:36;21.20;99.90
15749;DHT22;7976;52.526;13.326;2023-07-02T10:12:18;21.30;99.90
15749;DHT22;7976;52.526;13.326;2023-07-02T10:14:47;21.30;99.90
15749;DHT22;7976;52.526;13.326;2023-07-02T10:17:25;21.50;99.90
15749;DHT22;7976;52.526;13.326;2023-07-02T10:19:57;21.50;99.90
15749;DHT22;7976;52.526;13.326;2023-07-02T10:22:25;21.50;99.90
15749;DHT22;7976;52.526;13.326;2023-07-02T10:24:55;21.50;99.90
15749;DHT22;7976;52.526;13.326;2023-07-02T10:27:36;21.50;99.90
15749;DHT22;7976;52.526;13.326;2023-07-02T10:30:04;21.60;99.90
15749;DHT22;7976;52.526;13.326;2023-07-02T10:32:34;21.70;99.90
15749;DHT22;7976;52.526;13.326;2023-07-02T10:35:13;21.70;99.90
15749;DHT22;7976;52.526;13.326;2023-07-02T10:37:42;21.70;99.90
15749;DHT22;7976;52.526;13.326;2023-07-02T10:40:11;21.70;99.90
15749;DHT22;7976;52.526;13.326;2023-07-02T10:42:46;21.60;99.90
15749;DHT22;7976;52.526;13.326;2023-07-02T10:45:13;21.40;99.90
15749;DHT22;7976;52.526;13.326;2023-07-02T10:47:41;21.20;99.90
15749;DHT22;7976;52.526;13.326;2023-07-02T10:50:15;21.10;99.90
15749;DHT22;7976;52.526;13.326;2023-07-02T10:52:43;21.00;99.90
15749;DHT22;7976;52.526;13.326;2023-07-02T10:55:16;20.90;99.90
15749;DHT22;7976;52.526;13.326;2023-07-02T10:57:43;20.90;99.90
15749;DHT22;7976;52.526;13.326;2023-07-02T11:00:11;21.00;99.90
15749;DHT22;7976;52.526;13.326;2023-07-02T11:02:39;21.00;99.90
15749;DHT22;7976;52.526;13.326;2023-07-02T11:05:07;21.00;99.90
15749;DHT22;7976;52.526;13.326;2023-07-02T11:07:37;21.00;99.90
15749;DHT22;7976;52.526;13.326;2023-07-02T11:10:05;21.00;99.90
15749;DHT22;7976;52.526;13.326;2023-07-02T11:12:34;20.90;99.90
15749;DHT22;7976;52.526;13.326;2023-07-02T11:15:09;20.90;99.90
15749;DHT22;7976;52.526;13.326;2023-07-02T11:17:37;21.00;99.90
15749;DHT22;7976;52.526;13.326;2023-07-02T11:20:07;21.10;99.90
15749;DHT22;7976;52.526;13.326;2023-07-02T11:22:36;21.10;99.90
15749;DHT22;7976;52.526;13.326;2023-07-02T11:25:13;21.10;99.90
15749;DHT22;7976;52.526;13.326;2023-07-02T11:27:44;21.20;99.90
15749;DHT22;7976;52.526;13.326;2023-07-02T11:30:12;21.40;99.90
15749;DHT22;7976;52.526;13.326;2023-07-02T11:32:50;21.40;99.90
15749;DHT22;7976;52.526;13.326;2023-07-02T11:35:18;21.40;99.90
15749;DHT22;7976;52.526;13.326;2023-07-02T11:37:46;21.50;99.90
15749;DHT22;7976;52.526;13.326;2023-07-02T11:40:14;21.50;99.90
15749;DHT22;7976;52.526;13.326;2023-07-02T11:42:44;21.50;99.90
15749;DHT22;7976;52.526;13.326;2023-07-02T11:45:11;21.60;99.90
15749;DHT22;7976;52.526;13.326;2023-07-02T11:47:38;21.70;99.90
15749;DHT22;7976;52.526;13.326;2023-07-02T11:50:05;21.80;99.90
15749;DHT22;7976;52.526;13.326;2023-07-02T11:52:33;21.90;99.90
15749;DHT22;7976;52.526;13.326;2023-07-02T11:55:00;22.10;99.90
15749;DHT22;7976;52.526;13.326;2023-07-02T11:57:27;22.10;99.90
15749;DHT22;7976;52.526;13.326;2023-07-02T11:59:55;22.10;99.90
15749;DHT22;7976;52.526;13.326;2023-07-02T12:02:23;22.10;99.90
15749;DHT22;7976;52.526;13.326;2023-07-02T12:04:50;22.10;99.90
15749;DHT22;7976;52.526;13.326;2023-07-02T12:07:17;22.20;99.90
15749;DHT22;7976;52.526;13.326;2023-07-02T12:09:44;22.20;99.90
15749;DHT22;7976;52.526;13.326;2023-07-02T12:12:10;22.30;99.90
15749;DHT22;7976;52.526;13.326;2023-07-02T12:14:37;22.40;99.90
15749;DHT22;7976;52.526;13.326;2023-07-02T12:17:08;22.50;99.90
15749;DHT22;7976;52.526;13.326;2023-07-02T12:19:38;22.60;99.90
15749;DHT22;7976;52.526;13.326;2023-07-02T12:22:04;22.60;99.90
15749;DHT22;7976;52.526;13.326;2023-07-02T12:24:31;22.80;99.90
15749;DHT22;7976;52.526;13.326;2023-07-02T12:26:58;22.90;99.90
15749;DHT22;7976;52.526;13.326;2023-07-02T12:29:29;23.10;99.90
15749;DHT22;7976;52.526;13.326;2023-07-02T12:31:59;23.20;99.90
15749;DHT22;7976;52.526;13.326;2023-07-02T12:34:28;23.20;99.90
15749;DHT22;7976;52.526;13.326;2023-07-02T12:36:55;23.30;99.90
15749;DHT22;7976;52.526;13.326;2023-07-02T12:39:22;23.30;99.90
15749;DHT22;7976;52.526;13.326;2023-07-02T12:41:50;23.20;99.90
15749;DHT22;7976;52.526;13.326;2023-07-02T12:44:17;23.10;99.90
15749;DHT22;7976;52.526;13.326;2023-07-02T12:46:44;23.10;99.90
15749;DHT22;7976;52.526;13.326;2023-07-02T12:49:11;22.90;99.90
15749;DHT22;7976;52.526;13.326;2023-07-02T12:51:40;22.90;99.90
15749;DHT22;7976;52.526;13.326;2023-07-02T12:54:07;23.00;99.90
15749;DHT22;7976;52.526;13.326;2023-07-02T12:56:34;23.00;99.90
15749;DHT22;7976;52.526;13.326;2023-07-02T12:59:02;22.90;99.90
15749;DHT22;7976;52.526;13.326;2023-07-02T13:01:29;22.80;99.90
15749;DHT22;7976;52.526;13.326;2023-07-02T13:03:57;22.60;99.90
15749;DHT22;7976;52.526;13.326;2023-07-02T13:06:25;22.60;99.90
15749;DHT22;7976;52.526;13.326;2023-07-02T13:09:08;22.80;99.90
15749;DHT22;7976;52.526;13.326;2023-07-02T13:11:35;22.90;99.90
15749;DHT22;7976;52.526;13.326;2023-07-02T13:14:03;23.00;99.90
15749;DHT22;7976;52.526;13.326;2023-07-02T13:16:31;23.00;99.90
15749;DHT22;7976;52.526;13.326;2023-07-02T13:19:02;22.90;99.90
15749;DHT22;7976;52.526;13.326;2023-07-02T13:21:30;22.80;99.90
15749;DHT22;7976;52.526;13.326;2023-07-02T13:23:57;22.80;99.90
15749;DHT22;7976;52.526;13.326;2023-07-02T13:26:25;22.80;99.90
15749;DHT22;7976;52.526;13.326;2023-07-02T13:28:53;22.70;99.90
15749;DHT22;7976;52.526;13.326;2023-07-02T13:31:20;22.70;99.90
15749;DHT22;7976;52.526;13.326;2023-07-02T13:33:47;22.70;99.90
15749;DHT22;7976;52.526;13.326;2023-07-02T13:36:16;22.70;99.90
15749;DHT22;7976;52.526;13.326;2023-07-02T13:38:43;22.60;99.90
15749;DHT22;7976;52.526;13.326;2023-07-02T13:41:10;22.50;99.90
15749;DHT22;7976;52.526;13.326;2023-07-02T13:43:39;22.60;99.90
15749;DHT22;7976;52.526;13.326;2023-07-02T13:46:06;22.70;99.90
15749;DHT22;7976;52.526;13.326;2023-07-02T13:48:33;22.70;99.90
15749;DHT22;7976;52.526;13.326;2023-07-02T13:51:02;22.80;99.90
15749;DHT22;7976;52.526;13.326;2023-07-02T13:53:30;22.90;99.90
15749;DHT22;7976;52.526;13.326;2023-07-02T13:55:58;22.90;99.90
15749;DHT22;7976;52.526;13.326;2023-07-02T13:58:25;22.90;99.90
15749;DHT22;7976;52.526;13.326;2023-07-02T14:00:53;23.00;99.90
15749;DHT22;7976;52.526;13.326;2023-07-02T14:03:20;23.10;99.90
15749;DHT22;7976;52.526;13.326;2023-07-02T14:05:47;23.10;99.90
15749;DHT22;7976;52.526;13.326;2023-07-02T14:08:15;23.10;99.90
15749;DHT22;7976;52.526;13.326;2023-07-02T14:10:42;23.10;99.90
15749;DHT22;7976;52.526;13.326;2023-07-02T14:13:09;23.00;99.90
15749;DHT22;7976;52.526;13.326;2023-07-02T14:15:36;22.90;99.80
15749;DHT22;7976;52.526;13.326;2023-07-02T14:18:05;22.80;99.80
15749;DHT22;7976;52.526;13.326;2023-07-02T14:20:32;22.70;99.90
15749;DHT22;7976;52.526;13.326;2023-07-02T14:22:59;22.60;99.90
15749;DHT22;7976;52.526;13.326;2023-07-02T14:25:26;22.60;99.90
15749;DHT22;7976;52.526;13.326;2023-07-02T14:27:53;22.70;99.90
15749;DHT22;7976;52.526;13.326;2023-07-02T14:30:21;22.70;99.90
15749;DHT22;7976;52.526;13.326;2023-07-02T14:32:48;22.80;99.10
15749;DHT22;7976;52.526;13.326;2023-07-02T14:35:17;22.80;98.60
15749;DHT22;7976;52.526;13.326;2023-07-02T14:37:47;22.80;98.30
15749;DHT22;7976;52.526;13.326;2023-07-02T14:40:14;22.80;98.10
15749;DHT22;7976;52.526;13.326;2023-07-02T14:42:42;22.80;98.20
15749;DHT22;7976;52.526;13.326;2023-07-02T14:45:09;22.80;98.20
15749;DHT22;7976;52.526;13.326;2023-07-02T14:47:44;22.80;98.20
15749;DHT22;7976;52.526;13.326;2023-07-02T14:50:11;22.80;97.60
15749;DHT22;7976;52.526;13.326;2023-07-02T14:52:40;22.90;97.80
15749;DHT22;7976;52.526;13.326;2023-07-02T14:55:08;22.80;98.00
15749;DHT22;7976;52.526;13.326;2023-07-02T14:57:35;22.70;97.70
15749;DHT22;7976;52.526;13.326;2023-07-02T15:00:03;22.60;98.10
15749;DHT22;7976;52.526;13.326;2023-07-02T15:02:31;22.70;98.10
15749;DHT22;7976;52.526;13.326;2023-07-02T15:04:58;22.70;98.00
15749;DHT22;7976;52.526;13.326;2023-07-02T15:07:25;22.70;98.00
15749;DHT22;7976;52.526;13.326;2023-07-02T15:09:54;22.60;98.10
15749;DHT22;7976;52.526;13.326;2023-07-02T15:12:21;22.50;98.30
15749;DHT22;7976;52.526;13.326;2023-07-02T15:14:48;22.30;97.80
15749;DHT22;7976;52.526;13.326;2023-07-02T15:17:15;22.20;97.80
15749;DHT22;7976;52.526;13.326;2023-07-02T15:19:42;22.20;97.80
15749;DHT22;7976;52.526;13.326;2023-07-02T15:22:09;22.10;98.10
15749;DHT22;7976;52.526;13.326;2023-07-02T15:24:36;22.10;98.30
15749;DHT22;7976;52.526;13.326;2023-07-02T15:27:05;22.20;98.40
15749;DHT22;7976;52.526;13.326;2023-07-02T15:29:33;22.30;98.60
15749;DHT22;7976;52.526;13.326;2023-07-02T15:32:00;22.30;98.50
15749;DHT22;7976;52.526;13.326;2023-07-02T15:34:27;22.20;98.30